Damascus, Oregon
Current Conditions -  °F | °C
As of 12:53 AM on Saturday 22 Nov 2014 (Local Time) from KTTD Reporting Station
Overcast Overcast  
Wind Chill: 49°   Ceiling: 6000
Heat Index: 49°   Visibility: 10mi
Dew Point: 46°   Wind: 0mph
Humidity: 90%   Direction: NA
Pressure: 29.66"   Gusts: NA
Location:  45.42°N, 122.46°W
Report Text: KTTD 220853Z AUTO 00000KT 10SM FEW019 SCT043 OVC060 09/08 A2966 RMK AO2 SLP042 60000 T00940078 51033
Loading
Personal Weather Stations






























Interactive Weather Map New forecast layout! Learn more

10-Day Weather Forecast

Advertisements
Track Severe Weather on mobile